Franklin Furnace, Pennsylvania
Current Conditions -  °F | °C
As of 6:53 AM on Monday 24 Nov 2014 (Local Time) from KHGR Reporting Station
Clear Clear  
Wind Chill: 59°   Ceiling: Unl
Heat Index: 59°   Visibility: 10mi
Dew Point: 55°   Wind: 12mph
Humidity: 87%   Direction: 180°S
Pressure: 29.59"   Gusts: NA
Location:  39.9438°N, 77.6827°W
Report Text: KHGR 241153Z 18010KT 10SM CLR 15/13 A2959 RMK AO2 SLP030 60003 70028 T01500128 10156 20139 53003
Loading
Personal Weather Stations






























Interactive Weather Map New forecast layout! Learn more

10-Day Weather Forecast

Advertisements
Track Severe Weather on mobile